createdAt,value
2023-03-05T00:07:33.312Z,8.40
2023-03-05T00:18:22.631Z,8.20
2023-03-05T00:29:16.195Z,7.80
2023-03-05T00:39:39.852Z,7.50
2023-03-05T00:50:03.696Z,7.30
2023-03-05T01:00:25.351Z,7.30
2023-03-05T01:10:48.761Z,7.30
2023-03-05T01:21:12.678Z,7.40
2023-03-05T01:31:36.222Z,7.50
2023-03-05T01:41:58.409Z,7.50
2023-03-05T01:52:24.180Z,7.50
2023-03-05T02:02:48.817Z,7.40
2023-03-05T02:13:14.804Z,7.30
2023-03-05T02:23:40.170Z,7.20
2023-03-05T02:34:01.605Z,7.20
2023-03-05T02:44:25.631Z,7.10
2023-03-05T02:54:47.297Z,7.10
2023-03-05T03:05:11.092Z,7.10
2023-03-05T03:15:33.075Z,7.00
2023-03-05T03:25:56.196Z,7.00
2023-03-05T03:36:17.918Z,7.10
2023-03-05T03:46:41.868Z,7.00
2023-03-05T03:57:03.664Z,6.90
2023-03-05T04:07:26.570Z,6.80
2023-03-05T04:17:48.472Z,6.70
2023-03-05T04:28:12.146Z,6.60
2023-03-05T04:38:33.991Z,6.40
2023-03-05T04:48:58.640Z,6.50
2023-03-05T04:59:20.100Z,6.40
2023-03-05T05:09:42.986Z,6.40
2023-03-05T05:20:08.237Z,6.30
2023-03-05T05:30:31.436Z,6.40
2023-03-05T05:40:53.312Z,6.30
2023-03-05T05:51:20.926Z,6.40
2023-03-05T06:01:42.781Z,6.60
2023-03-05T06:12:07.506Z,6.70
2023-03-05T06:22:29.288Z,6.70
2023-03-05T06:32:52.614Z,6.90
2023-03-05T06:55:31.646Z,7.20
2023-03-05T07:05:53.074Z,7.10
2023-03-05T07:16:19.028Z,7.30
2023-03-05T07:26:40.801Z,7.30
2023-03-05T07:37:04.587Z,7.40
2023-03-05T07:47:28.092Z,7.50
2023-03-05T07:57:54.337Z,7.70
2023-03-05T08:08:19.423Z,7.70
2023-03-05T08:18:46.524Z,7.70
2023-03-05T08:29:08.943Z,8.30
2023-03-05T08:39:34.096Z,8.20
2023-03-05T08:49:57.599Z,8.80
2023-03-05T09:00:21.837Z,8.30
2023-03-05T09:10:43.760Z,8.10
2023-03-05T09:21:08.692Z,9.50
2023-03-05T09:31:32.057Z,9.00
2023-03-05T09:42:25.038Z,8.50
2023-03-05T09:52:48.649Z,8.50
2023-03-05T10:03:18.242Z,8.90
2023-03-05T10:13:44.077Z,8.90
2023-03-05T10:24:17.347Z,8.90
2023-03-05T10:35:02.355Z,8.60
2023-03-05T10:45:30.492Z,8.40
2023-03-05T10:55:57.379Z,8.70
2023-03-05T11:06:37.042Z,8.70
2023-03-05T11:16:58.768Z,8.20
2023-03-05T11:27:34.271Z,8.20
2023-03-05T11:38:02.133Z,8.40
2023-03-05T11:48:29.601Z,8.20
2023-03-05T11:58:55.836Z,8.10
2023-03-05T12:09:25.779Z,8.50
2023-03-05T12:20:01.501Z,7.80
2023-03-05T12:30:59.298Z,7.50
2023-03-05T12:41:38.274Z,8.70
2023-03-05T12:52:06.350Z,9.20
2023-03-05T13:02:32.789Z,9.10
2023-03-05T13:12:58.450Z,8.60
2023-03-05T13:23:23.259Z,8.50
2023-03-05T13:33:54.293Z,9.10
2023-03-05T13:44:21.857Z,8.70
2023-03-05T13:54:44.868Z,8.90
2023-03-05T14:05:15.342Z,9.00
2023-03-05T14:15:39.263Z,8.90
2023-03-05T14:26:19.238Z,8.80
2023-03-05T14:36:48.828Z,8.90
2023-03-05T14:47:10.495Z,8.00
2023-03-05T14:57:33.793Z,7.60
2023-03-05T15:07:55.248Z,8.00
2023-03-05T15:18:19.985Z,7.90
2023-03-05T15:28:41.880Z,8.10
2023-03-05T15:39:05.002Z,8.00
2023-03-05T15:49:26.590Z,8.00
2023-03-05T15:59:49.573Z,7.80
2023-03-05T16:10:14.434Z,7.70
2023-03-05T16:20:38.238Z,7.80
2023-03-05T16:31:00.830Z,7.70
2023-03-05T16:41:24.744Z,7.50
2023-03-05T16:51:46.598Z,7.50
2023-03-05T17:02:09.619Z,7.40
2023-03-05T17:12:31.639Z,7.30
2023-03-05T17:22:55.109Z,7.30
2023-03-05T17:33:16.702Z,7.20
2023-03-05T17:43:39.917Z,7.20
2023-03-05T17:54:01.497Z,7.10
2023-03-05T18:04:24.734Z,6.70
2023-03-05T18:14:48.049Z,6.40
2023-03-05T18:25:12.081Z,6.30
2023-03-05T18:35:34.144Z,6.30
2023-03-05T18:45:57.468Z,6.30
2023-03-05T18:56:19.119Z,6.30
2023-03-05T19:06:42.456Z,6.20
2023-03-05T19:17:04.044Z,6.20
2023-03-05T19:27:27.640Z,6.10
2023-03-05T19:37:49.708Z,6.10
2023-03-05T19:48:13.169Z,6.10
2023-03-05T19:58:34.956Z,6.20
2023-03-05T20:08:58.859Z,6.20
2023-03-05T20:19:21.905Z,6.10
2023-03-05T20:29:44.892Z,6.10
2023-03-05T20:40:08.329Z,6.20
2023-03-05T20:50:33.417Z,6.20
2023-03-05T21:00:55.016Z,6.20
2023-03-05T21:11:18.538Z,6.30
2023-03-05T21:21:44.699Z,6.30
2023-03-05T21:32:08.497Z,6.20
2023-03-05T21:42:32.943Z,6.10
2023-03-05T21:52:56.235Z,6.20
2023-03-05T22:03:20.038Z,6.10
2023-03-05T22:13:43.845Z,6.00
2023-03-05T22:24:07.870Z,6.00
2023-03-05T22:34:31.034Z,6.10
2023-03-05T22:44:57.131Z,6.00
2023-03-05T22:55:20.456Z,6.00
2023-03-05T23:05:46.218Z,6.30
2023-03-05T23:16:12.550Z,6.10
2023-03-05T23:26:39.003Z,6.00
2023-03-05T23:37:02.840Z,6.20
2023-03-05T23:47:29.469Z,6.20
2023-03-05T23:57:53.448Z,6.40
